createdAt,value
2018-04-12T07:43:49.847Z,24.60
2018-04-12T07:46:17.356Z,23.70
2018-04-12T07:48:45.263Z,23.60
2018-04-12T07:51:13.535Z,22.40
2018-04-12T07:53:41.457Z,22.40
2018-04-12T07:56:08.948Z,23.10
2018-04-12T07:58:37.578Z,26.30
2018-04-12T08:01:05.197Z,26.10
2018-04-12T08:03:33.002Z,26.70
2018-04-12T08:06:00.563Z,27.40
2018-04-12T08:08:28.616Z,26.40
2018-04-12T08:10:56.137Z,26.70
2018-04-12T08:13:23.649Z,27.60
2018-04-12T08:15:51.199Z,26.60
2018-04-12T08:18:18.706Z,26.80
2018-04-12T08:20:48.868Z,27.80
2018-04-12T08:23:17.966Z,27.10
2018-04-12T08:25:46.992Z,26.60
2018-04-12T08:28:16.360Z,26.60
2018-04-12T08:30:44.393Z,27.70
2018-04-12T08:33:11.885Z,28.90
2018-04-12T08:35:39.464Z,28.80
2018-04-12T08:38:07.199Z,27.60
2018-04-12T08:40:34.701Z,26.80
2018-04-12T08:43:03.054Z,26.40
2018-04-12T08:45:30.668Z,26.20
2018-04-12T08:47:58.558Z,25.10
2018-04-12T08:50:27.139Z,24.70
2018-04-12T08:52:55.408Z,25.20
2018-04-12T08:55:23.819Z,25.30
2018-04-12T08:57:51.761Z,25.30
2018-04-12T09:00:20.346Z,24.40
2018-04-12T09:02:48.244Z,24.40
2018-04-12T09:05:16.284Z,24.20
2018-04-12T09:07:44.355Z,23.30
2018-04-12T09:10:11.955Z,22.70
2018-04-12T09:12:39.812Z,22.20
2018-04-12T09:15:07.324Z,21.70
2018-04-12T09:17:35.088Z,21.10
2018-04-12T09:20:02.590Z,20.40
2018-04-12T09:22:30.742Z,20.10
2018-04-12T09:24:58.274Z,20.30
2018-04-12T09:27:26.116Z,20.70
2018-04-12T09:29:54.132Z,21.10
2018-04-12T09:32:21.630Z,21.40
2018-04-12T09:34:49.278Z,21.40
2018-04-12T09:37:16.782Z,21.20
2018-04-12T09:39:44.273Z,21.20
2018-04-12T09:42:11.798Z,21.80
2018-04-12T09:44:39.720Z,22.40
2018-04-12T09:47:07.556Z,23.00
2018-04-12T09:49:35.233Z,23.80
2018-04-12T09:52:03.214Z,25.30
2018-04-12T09:54:31.169Z,26.40
2018-04-12T09:56:58.662Z,27.40
2018-04-12T09:59:26.646Z,27.80
2018-04-12T10:01:54.925Z,28.60
2018-04-12T10:04:27.585Z,29.20
2018-04-12T10:09:58.912Z,27.30
2018-04-12T10:12:26.684Z,26.50
2018-04-12T10:14:54.801Z,26.10
2018-04-12T10:17:22.539Z,26.40
2018-04-12T10:19:50.021Z,26.20
2018-04-12T10:22:17.579Z,26.50
2018-04-12T10:24:46.016Z,26.70
2018-04-12T10:27:13.540Z,27.20
2018-04-12T10:29:41.136Z,26.60
2018-04-12T10:32:08.691Z,26.60
2018-04-12T10:34:36.554Z,25.60
2018-04-12T10:37:04.198Z,25.20
2018-04-12T10:39:32.674Z,24.90
2018-04-12T10:42:00.159Z,24.80
2018-04-12T13:47:39.696Z,22.80
2018-04-12T13:50:08.497Z,22.60
2018-04-12T13:52:45.248Z,22.60
2018-04-12T13:55:13.638Z,22.70
2018-04-12T13:57:52.867Z,22.70
2018-04-12T14:00:20.395Z,22.30
2018-04-12T14:02:59.850Z,22.10
2018-04-12T14:05:33.553Z,22.10
2018-04-12T14:08:08.007Z,22.20
2018-04-12T14:10:37.304Z,22.20
2018-04-12T14:13:07.625Z,22.20
2018-04-12T14:15:47.494Z,22.30
2018-04-12T14:18:21.462Z,22.50
2018-04-12T14:20:49.984Z,22.90
2018-04-12T14:23:17.516Z,23.20
2018-04-12T14:25:45.365Z,23.30
2018-04-12T14:28:18.526Z,23.50
2018-04-12T14:30:58.752Z,23.60
2018-04-12T14:33:26.333Z,23.60
2018-04-12T14:35:53.858Z,23.70
2018-04-12T14:38:21.368Z,23.60
2018-04-12T14:40:48.858Z,23.70
2018-04-12T14:43:16.734Z,23.30
2018-04-12T14:45:44.356Z,23.20
2018-04-12T14:48:12.143Z,23.20
2018-04-12T14:50:39.650Z,23.00
2018-04-12T14:53:07.975Z,23.10
2018-04-12T14:55:35.495Z,23.20
2018-04-12T14:58:08.752Z,23.10
2018-04-12T15:00:36.252Z,22.90
2018-04-12T15:03:04.269Z,23.00
2018-04-12T15:05:31.803Z,22.90
2018-04-12T15:07:59.344Z,22.90
2018-04-12T15:10:28.179Z,22.60
2018-04-12T15:12:55.668Z,22.60
2018-04-12T15:15:35.267Z,22.50
2018-04-12T15:18:09.456Z,22.20
2018-04-12T15:20:43.080Z,22.20
2018-04-12T15:23:10.576Z,22.10
2018-04-12T15:25:44.272Z,22.20
2018-04-12T15:28:18.153Z,22.20
2018-04-12T15:30:46.343Z,22.20
2018-04-12T15:33:20.433Z,22.10
2018-04-12T15:35:53.738Z,22.00
2018-04-12T15:38:21.650Z,22.00
2018-04-12T15:40:49.497Z,22.00
2018-04-12T15:43:17.456Z,22.10
2018-04-12T15:45:45.053Z,22.00
2018-04-12T15:48:12.968Z,21.80
2018-04-12T15:50:46.508Z,21.80
2018-04-12T15:53:14.843Z,21.80
2018-04-12T15:55:48.273Z,21.50
2018-04-12T15:58:16.211Z,21.30
2018-04-12T16:00:49.560Z,21.00
2018-04-12T16:03:23.332Z,21.00
2018-04-12T16:05:56.797Z,20.90
2018-04-12T16:08:25.449Z,20.70
2018-04-12T16:10:58.980Z,20.80
2018-04-12T16:13:27.061Z,20.60
2018-04-12T16:15:54.741Z,20.50
2018-04-12T16:18:22.251Z,20.50
2018-04-12T16:20:49.742Z,20.40
2018-04-12T16:23:17.238Z,20.30
2018-04-12T16:25:44.730Z,20.10
2018-04-12T16:28:12.624Z,20.10
2018-04-12T16:30:40.135Z,20.10
2018-04-12T16:33:08.090Z,20.10
2018-04-12T16:35:41.494Z,20.10
2018-04-12T16:38:09.417Z,20.00
2018-04-12T16:40:36.924Z,20.00
2018-04-12T16:43:04.439Z,20.00
2018-04-12T16:45:38.041Z,20.00
2018-04-12T16:48:05.876Z,20.00
2018-04-12T16:50:39.112Z,19.90
2018-04-12T16:53:06.850Z,19.90
2018-04-12T16:55:34.423Z,19.90
2018-04-12T16:58:02.300Z,19.90
2018-04-12T17:00:30.056Z,19.90
2018-04-12T17:02:57.546Z,19.80
2018-04-12T17:05:25.229Z,19.70
2018-04-12T17:07:53.356Z,19.60
2018-04-12T17:10:26.744Z,19.50
2018-04-12T17:13:01.164Z,19.30
2018-04-12T17:15:28.658Z,19.20
2018-04-12T17:17:56.243Z,19.10
2018-04-12T17:20:30.722Z,19.00
2018-04-12T17:22:59.200Z,18.90
2018-04-12T17:25:27.362Z,18.80
2018-04-12T17:27:57.169Z,18.70
2018-04-12T17:30:27.662Z,18.60
2018-04-12T17:33:02.259Z,18.50
2018-04-12T17:35:30.940Z,18.40
2018-04-12T17:38:04.446Z,18.30
2018-04-12T17:40:44.974Z,18.20
2018-04-12T17:43:15.667Z,18.10
2018-04-12T17:45:57.110Z,18.00
2018-04-12T17:48:24.633Z,17.80
2018-04-12T17:50:52.159Z,17.80
2018-04-12T17:53:20.366Z,17.70
2018-04-12T17:55:53.765Z,17.60
2018-04-12T17:58:27.114Z,17.50
2018-04-12T18:01:00.754Z,17.40
2018-04-12T18:03:28.255Z,17.30
2018-04-12T18:05:55.816Z,17.20
2018-04-12T18:08:29.486Z,17.10
2018-04-12T18:11:03.314Z,17.00
2018-04-12T18:13:30.968Z,17.00
2018-04-12T18:16:04.639Z,16.90
2018-04-12T18:18:37.779Z,16.80
2018-04-12T18:21:11.537Z,16.70
2018-04-12T18:23:39.073Z,16.70
2018-04-12T18:26:06.811Z,16.70
2018-04-12T18:28:34.804Z,16.60
2018-04-12T18:31:02.293Z,16.60
2018-04-12T18:33:29.788Z,16.60
2018-04-12T18:35:58.084Z,16.50
2018-04-12T18:38:25.597Z,16.50
2018-04-12T18:40:53.609Z,16.40
2018-04-12T18:43:21.108Z,16.40
2018-04-12T18:45:55.512Z,16.30
2018-04-12T18:48:24.098Z,16.20
2018-04-12T18:50:52.362Z,16.20
2018-04-12T18:53:20.583Z,16.20
2018-04-12T18:55:54.264Z,16.10
2018-04-12T18:58:22.075Z,16.00
2018-04-12T19:00:49.609Z,16.00
2018-04-12T19:03:18.701Z,15.90
2018-04-12T19:05:52.317Z,15.90
2018-04-12T19:08:20.176Z,15.80
2018-04-12T19:11:00.018Z,15.70
2018-04-12T19:13:27.604Z,15.60
2018-04-12T19:15:55.426Z,15.50
2018-04-12T19:18:23.244Z,15.50
2018-04-12T19:20:51.056Z,15.40
2018-04-12T19:23:18.959Z,15.30
2018-04-12T19:25:54.305Z,15.20
2018-04-12T19:28:22.113Z,15.10
2018-04-12T19:30:49.982Z,15.00
2018-04-12T19:33:30.448Z,14.90
2018-04-12T19:35:58.552Z,14.80
2018-04-12T19:38:32.221Z,14.70
2018-04-12T19:41:06.209Z,14.50
2018-04-12T19:43:34.054Z,14.50
2018-04-12T19:46:07.357Z,14.30
2018-04-12T19:48:35.302Z,14.20
2018-04-12T19:51:02.844Z,14.10
2018-04-12T19:53:30.848Z,13.90
2018-04-12T19:55:59.310Z,13.90
2018-04-12T19:58:33.036Z,13.80
2018-04-12T20:01:00.549Z,13.70
2018-04-12T20:03:28.643Z,13.70
2018-04-12T20:06:02.480Z,13.60
2018-04-12T20:08:30.180Z,13.60
2018-04-12T20:10:58.301Z,13.60
2018-04-12T20:13:25.944Z,13.60
2018-04-12T20:15:53.654Z,13.60
2018-04-12T20:18:31.966Z,13.50
2018-04-12T20:21:06.120Z,13.40
2018-04-12T20:23:33.714Z,13.40
2018-04-12T20:26:07.374Z,13.30
2018-04-12T20:28:35.662Z,13.20
2018-04-12T20:31:08.889Z,13.10
2018-04-12T20:33:42.570Z,13.10
2018-04-12T20:36:15.963Z,13.10
2018-04-12T20:38:43.788Z,13.10
2018-04-12T20:41:12.729Z,13.00
2018-04-12T20:43:40.901Z,13.00
2018-04-12T20:46:08.433Z,12.90
2018-04-12T20:48:36.060Z,12.90
2018-04-12T20:51:04.651Z,12.70
2018-04-12T20:53:43.873Z,12.70
2018-04-12T20:56:12.681Z,12.60
2018-04-12T20:58:40.580Z,12.60
2018-04-12T21:01:13.948Z,12.50
2018-04-12T21:03:47.762Z,12.60
2018-04-12T21:06:16.034Z,12.50
2018-04-12T21:08:44.114Z,12.50
2018-04-12T21:11:17.410Z,12.40
2018-04-12T21:13:45.475Z,12.40
2018-04-12T21:16:13.350Z,12.30
2018-04-12T21:18:40.851Z,12.30
2018-04-12T21:21:08.572Z,12.30
2018-04-12T21:23:36.474Z,12.30
2018-04-12T21:26:04.216Z,12.20
2018-04-12T21:28:32.453Z,12.20
2018-04-12T21:31:06.937Z,12.10
2018-04-12T21:33:34.669Z,12.10
2018-04-12T21:36:02.249Z,12.20
2018-04-12T21:38:47.581Z,12.10
2018-04-12T21:41:15.334Z,12.10
2018-04-12T21:43:43.237Z,12.10
2018-04-12T21:46:11.046Z,12.10
2018-04-12T21:48:39.325Z,12.10
2018-04-12T21:51:07.611Z,12.10
2018-04-12T21:53:35.918Z,12.00
2018-04-12T21:56:03.410Z,12.10
2018-04-12T21:58:36.882Z,12.00
2018-04-12T22:01:10.201Z,12.00
2018-04-12T22:03:38.420Z,12.00
2018-04-12T22:06:05.981Z,12.00
2018-04-12T22:08:34.785Z,12.00
2018-04-12T22:11:03.320Z,12.00
2018-04-12T22:13:30.871Z,12.00
2018-04-12T22:15:58.405Z,12.00
2018-04-12T22:18:31.857Z,11.90
2018-04-12T22:21:00.454Z,11.80
2018-04-12T22:23:28.062Z,11.80
2018-04-12T22:25:55.562Z,11.80
2018-04-12T22:28:23.037Z,11.70
2018-04-12T22:30:50.524Z,11.70
2018-04-12T22:33:18.674Z,11.60
2018-04-12T22:35:51.941Z,11.50
2018-04-12T22:38:27.394Z,11.50
2018-04-12T22:40:54.868Z,11.40
2018-04-12T22:43:22.640Z,11.50
2018-04-12T22:45:50.257Z,11.50
2018-04-12T22:48:19.130Z,11.50
2018-04-12T22:50:58.208Z,11.40
2018-04-12T22:53:25.920Z,11.50
2018-04-12T22:55:53.433Z,11.50
2018-04-12T22:58:26.772Z,11.60
2018-04-12T23:00:54.801Z,11.70
2018-04-12T23:03:22.288Z,11.80
2018-04-12T23:05:55.928Z,11.80
2018-04-12T23:08:23.810Z,11.80
2018-04-12T23:10:51.661Z,11.80
2018-04-12T23:13:24.749Z,11.80
2018-04-12T23:15:59.255Z,11.50
2018-04-12T23:18:32.637Z,11.60
2018-04-12T23:21:06.475Z,11.50
2018-04-12T23:23:34.078Z,11.40
2018-04-12T23:26:03.711Z,11.40
2018-04-12T23:28:44.508Z,11.40
2018-04-12T23:31:17.943Z,11.40
2018-04-12T23:33:45.515Z,11.40
2018-04-12T23:36:20.101Z,11.40
2018-04-12T23:38:48.511Z,11.30
2018-04-12T23:41:22.731Z,11.20
2018-04-12T23:43:50.221Z,11.30
2018-04-12T23:46:23.980Z,11.30
2018-04-12T23:48:51.470Z,11.30
2018-04-12T23:51:19.487Z,11.30
2018-04-12T23:53:46.967Z,11.20
2018-04-12T23:56:14.486Z,11.20
2018-04-12T23:58:42.496Z,11.20
